sensor_id;sensor_type;location;lat;lon;timestamp;P1;durP1;ratioP1;P2;durP2;ratioP2
78581;SDS011;67878;46.242;5.974;2023-06-14T00:02:05;4.90;;;4.50;;
78581;SDS011;67878;46.242;5.974;2023-06-14T00:04:33;4.90;;;4.20;;
78581;SDS011;67878;46.242;5.974;2023-06-14T00:07:00;4.93;;;4.43;;
78581;SDS011;67878;46.242;5.974;2023-06-14T00:09:29;4.70;;;4.30;;
78581;SDS011;67878;46.242;5.974;2023-06-14T00:11:57;4.60;;;4.20;;
78581;SDS011;67878;46.242;5.974;2023-06-14T00:14:25;4.85;;;4.35;;
78581;SDS011;67878;46.242;5.974;2023-06-14T00:16:54;4.88;;;4.47;;
78581;SDS011;67878;46.242;5.974;2023-06-14T00:19:25;4.78;;;4.38;;
78581;SDS011;67878;46.242;5.974;2023-06-14T00:21:55;4.50;;;4.10;;
78581;SDS011;67878;46.242;5.974;2023-06-14T00:24:27;4.63;;;4.22;;
78581;SDS011;67878;46.242;5.974;2023-06-14T00:26:55;4.70;;;4.30;;
78581;SDS011;67878;46.242;5.974;2023-06-14T00:29:23;5.35;;;4.85;;
78581;SDS011;67878;46.242;5.974;2023-06-14T00:31:49;5.28;;;4.25;;
78581;SDS011;67878;46.242;5.974;2023-06-14T00:34:14;4.70;;;3.85;;
78581;SDS011;67878;46.242;5.974;2023-06-14T00:36:40;4.97;;;4.47;;
78581;SDS011;67878;46.242;5.974;2023-06-14T00:39:06;5.10;;;4.60;;
78581;SDS011;67878;46.242;5.974;2023-06-14T00:41:35;4.70;;;4.30;;
78581;SDS011;67878;46.242;5.974;2023-06-14T00:44:04;5.30;;;4.45;;
78581;SDS011;67878;46.242;5.974;2023-06-14T00:46:33;5.10;;;4.60;;
78581;SDS011;67878;46.242;5.974;2023-06-14T00:49:04;4.75;;;4.25;;
78581;SDS011;67878;46.242;5.974;2023-06-14T00:51:35;4.53;;;3.85;;
78581;SDS011;67878;46.242;5.974;2023-06-14T00:54:05;4.35;;;3.90;;
78581;SDS011;67878;46.242;5.974;2023-06-14T00:56:35;4.47;;;4.07;;
78581;SDS011;67878;46.242;5.974;2023-06-14T00:59:04;4.32;;;3.92;;
78581;SDS011;67878;46.242;5.974;2023-06-14T01:01:33;4.68;;;4.28;;
78581;SDS011;67878;46.242;5.974;2023-06-14T01:04:00;4.38;;;3.97;;
78581;SDS011;67878;46.242;5.974;2023-06-14T01:06:49;4.75;;;4.35;;
78581;SDS011;67878;46.242;5.974;2023-06-14T01:09:30;5.22;;;4.55;;
78581;SDS011;67878;46.242;5.974;2023-06-14T01:12:04;4.60;;;4.20;;
78581;SDS011;67878;46.242;5.974;2023-06-14T01:14:46;4.30;;;3.90;;
78581;SDS011;67878;46.242;5.974;2023-06-14T01:17:13;4.10;;;3.70;;
78581;SDS011;67878;46.242;5.974;2023-06-14T01:19:42;4.38;;;3.97;;
78581;SDS011;67878;46.242;5.974;2023-06-14T01:22:08;4.57;;;4.18;;
78581;SDS011;67878;46.242;5.974;2023-06-14T01:24:33;3.80;;;3.50;;
78581;SDS011;67878;46.242;5.974;2023-06-14T01:27:00;4.30;;;3.90;;
78581;SDS011;67878;46.242;5.974;2023-06-14T01:29:26;5.15;;;4.05;;
78581;SDS011;67878;46.242;5.974;2023-06-14T01:31:53;4.50;;;4.10;;
78581;SDS011;67878;46.242;5.974;2023-06-14T01:34:18;4.03;;;3.70;;
78581;SDS011;67878;46.242;5.974;2023-06-14T01:36:44;4.30;;;3.90;;
78581;SDS011;67878;46.242;5.974;2023-06-14T01:39:11;4.47;;;4.07;;
78581;SDS011;67878;46.242;5.974;2023-06-14T01:41:39;5.22;;;4.30;;
78581;SDS011;67878;46.242;5.974;2023-06-14T01:44:05;6.78;;;3.78;;
78581;SDS011;67878;46.242;5.974;2023-06-14T01:46:31;4.15;;;3.58;;
78581;SDS011;67878;46.242;5.974;2023-06-14T01:48:56;4.65;;;3.50;;
78581;SDS011;67878;46.242;5.974;2023-06-14T01:51:21;4.13;;;3.72;;
78581;SDS011;67878;46.242;5.974;2023-06-14T01:53:47;5.03;;;4.00;;
78581;SDS011;67878;46.242;5.974;2023-06-14T01:56:13;4.85;;;4.15;;
78581;SDS011;67878;46.242;5.974;2023-06-14T01:58:38;4.78;;;3.90;;
78581;SDS011;67878;46.242;5.974;2023-06-14T02:01:04;4.18;;;3.78;;
78581;SDS011;67878;46.242;5.974;2023-06-14T02:03:30;4.25;;;3.85;;
78581;SDS011;67878;46.242;5.974;2023-06-14T02:05:55;4.22;;;3.83;;
78581;SDS011;67878;46.242;5.974;2023-06-14T02:08:21;4.45;;;4.05;;
78581;SDS011;67878;46.242;5.974;2023-06-14T02:10:47;4.22;;;3.80;;
78581;SDS011;67878;46.242;5.974;2023-06-14T02:13:12;4.25;;;3.85;;
78581;SDS011;67878;46.242;5.974;2023-06-14T02:15:38;3.90;;;3.35;;
78581;SDS011;67878;46.242;5.974;2023-06-14T02:18:03;3.85;;;3.35;;
78581;SDS011;67878;46.242;5.974;2023-06-14T02:20:29;4.25;;;3.85;;
78581;SDS011;67878;46.242;5.974;2023-06-14T02:22:55;3.70;;;3.40;;
78581;SDS011;67878;46.242;5.974;2023-06-14T02:25:20;3.92;;;3.53;;
78581;SDS011;67878;46.242;5.974;2023-06-14T02:27:46;4.10;;;3.70;;
78581;SDS011;67878;46.242;5.974;2023-06-14T02:30:11;4.20;;;3.70;;
78581;SDS011;67878;46.242;5.974;2023-06-14T02:32:37;4.28;;;3.88;;
78581;SDS011;67878;46.242;5.974;2023-06-14T02:35:03;4.38;;;3.80;;
78581;SDS011;67878;46.242;5.974;2023-06-14T02:37:29;4.25;;;3.50;;
78581;SDS011;67878;46.242;5.974;2023-06-14T02:39:55;3.80;;;3.50;;
78581;SDS011;67878;46.242;5.974;2023-06-14T02:42:21;3.90;;;3.60;;
78581;SDS011;67878;46.242;5.974;2023-06-14T02:44:46;3.60;;;3.30;;
78581;SDS011;67878;46.242;5.974;2023-06-14T02:47:16;3.83;;;3.50;;
78581;SDS011;67878;46.242;5.974;2023-06-14T02:49:42;4.10;;;3.33;;
78581;SDS011;67878;46.242;5.974;2023-06-14T02:52:07;3.72;;;3.22;;
78581;SDS011;67878;46.242;5.974;2023-06-14T02:54:34;3.70;;;3.40;;
78581;SDS011;67878;46.242;5.974;2023-06-14T02:56:59;3.80;;;3.47;;
78581;SDS011;67878;46.242;5.974;2023-06-14T02:59:25;3.95;;;3.55;;
78581;SDS011;67878;46.242;5.974;2023-06-14T03:01:51;3.50;;;3.20;;
78581;SDS011;67878;46.242;5.974;2023-06-14T03:04:17;4.00;;;3.70;;
78581;SDS011;67878;46.242;5.974;2023-06-14T03:06:42;4.88;;;3.80;;
78581;SDS011;67878;46.242;5.974;2023-06-14T03:09:09;4.25;;;3.47;;
78581;SDS011;67878;46.242;5.974;2023-06-14T03:11:34;4.47;;;3.47;;
78581;SDS011;67878;46.242;5.974;2023-06-14T03:14:00;3.63;;;3.33;;
78581;SDS011;67878;46.242;5.974;2023-06-14T03:16:26;6.72;;;3.83;;
78581;SDS011;67878;46.242;5.974;2023-06-14T03:18:54;3.63;;;3.30;;
78581;SDS011;67878;46.242;5.974;2023-06-14T03:21:19;3.63;;;3.33;;
78581;SDS011;67878;46.242;5.974;2023-06-14T03:23:48;4.45;;;4.05;;
78581;SDS011;67878;46.242;5.974;2023-06-14T03:26:14;3.60;;;3.30;;
78581;SDS011;67878;46.242;5.974;2023-06-14T03:28:42;3.95;;;3.55;;
78581;SDS011;67878;46.242;5.974;2023-06-14T03:31:11;3.90;;;3.50;;
78581;SDS011;67878;46.242;5.974;2023-06-14T03:33:37;3.50;;;3.20;;
78581;SDS011;67878;46.242;5.974;2023-06-14T03:36:03;3.00;;;2.70;;
78581;SDS011;67878;46.242;5.974;2023-06-14T03:38:29;3.78;;;3.22;;
78581;SDS011;67878;46.242;5.974;2023-06-14T03:40:55;3.72;;;3.42;;
78581;SDS011;67878;46.242;5.974;2023-06-14T03:43:21;3.50;;;3.20;;
78581;SDS011;67878;46.242;5.974;2023-06-14T03:45:46;3.95;;;3.40;;
78581;SDS011;67878;46.242;5.974;2023-06-14T03:48:11;3.40;;;3.10;;
78581;SDS011;67878;46.242;5.974;2023-06-14T03:50:37;4.05;;;3.65;;
78581;SDS011;67878;46.242;5.974;2023-06-14T03:53:03;4.55;;;3.17;;
78581;SDS011;67878;46.242;5.974;2023-06-14T03:55:29;3.78;;;3.10;;
78581;SDS011;67878;46.242;5.974;2023-06-14T03:57:56;5.07;;;3.38;;
78581;SDS011;67878;46.242;5.974;2023-06-14T04:00:22;3.50;;;3.20;;
78581;SDS011;67878;46.242;5.974;2023-06-14T04:02:48;4.68;;;3.38;;
78581;SDS011;67878;46.242;5.974;2023-06-14T04:05:13;3.67;;;3.38;;
78581;SDS011;67878;46.242;5.974;2023-06-14T04:07:42;4.60;;;3.60;;
78581;SDS011;67878;46.242;5.974;2023-06-14T04:10:10;3.30;;;3.00;;
78581;SDS011;67878;46.242;5.974;2023-06-14T04:12:36;3.80;;;3.47;;
78581;SDS011;67878;46.242;5.974;2023-06-14T04:15:01;3.90;;;2.85;;
78581;SDS011;67878;46.242;5.974;2023-06-14T04:17:27;3.63;;;3.30;;
78581;SDS011;67878;46.242;5.974;2023-06-14T04:19:53;3.20;;;2.90;;
78581;SDS011;67878;46.242;5.974;2023-06-14T04:22:18;3.15;;;2.85;;
78581;SDS011;67878;46.242;5.974;2023-06-14T04:24:43;3.47;;;3.17;;
78581;SDS011;67878;46.242;5.974;2023-06-14T04:27:09;3.47;;;3.17;;
78581;SDS011;67878;46.242;5.974;2023-06-14T04:29:36;3.25;;;2.95;;
78581;SDS011;67878;46.242;5.974;2023-06-14T04:32:04;3.63;;;3.25;;
78581;SDS011;67878;46.242;5.974;2023-06-14T04:34:31;4.15;;;3.50;;
78581;SDS011;67878;46.242;5.974;2023-06-14T04:36:59;4.20;;;3.50;;
78581;SDS011;67878;46.242;5.974;2023-06-14T04:39:27;3.70;;;3.30;;
78581;SDS011;67878;46.242;5.974;2023-06-14T04:42:02;3.60;;;3.28;;
78581;SDS011;67878;46.242;5.974;2023-06-14T04:44:36;3.70;;;3.40;;
78581;SDS011;67878;46.242;5.974;2023-06-14T04:47:06;3.50;;;3.20;;
78581;SDS011;67878;46.242;5.974;2023-06-14T04:49:38;3.72;;;2.65;;
78581;SDS011;67878;46.242;5.974;2023-06-14T04:52:07;3.20;;;2.90;;
78581;SDS011;67878;46.242;5.974;2023-06-14T04:54:39;3.35;;;3.05;;
78581;SDS011;67878;46.242;5.974;2023-06-14T04:57:11;3.60;;;3.30;;
78581;SDS011;67878;46.242;5.974;2023-06-14T04:59:42;3.58;;;3.28;;
78581;SDS011;67878;46.242;5.974;2023-06-14T05:02:13;3.33;;;2.95;;
78581;SDS011;67878;46.242;5.974;2023-06-14T05:04:39;3.88;;;3.25;;
78581;SDS011;67878;46.242;5.974;2023-06-14T05:07:06;3.72;;;3.28;;
78581;SDS011;67878;46.242;5.974;2023-06-14T05:09:33;3.38;;;2.85;;
78581;SDS011;67878;46.242;5.974;2023-06-14T05:11:58;3.75;;;3.17;;
78581;SDS011;67878;46.242;5.974;2023-06-14T05:14:25;3.47;;;3.17;;
78581;SDS011;67878;46.242;5.974;2023-06-14T05:16:51;4.70;;;3.47;;
78581;SDS011;67878;46.242;5.974;2023-06-14T05:19:18;3.65;;;3.00;;
78581;SDS011;67878;46.242;5.974;2023-06-14T05:21:45;3.08;;;2.78;;
78581;SDS011;67878;46.242;5.974;2023-06-14T05:24:12;3.33;;;3.03;;
78581;SDS011;67878;46.242;5.974;2023-06-14T05:33:23;3.30;;;3.00;;
78581;SDS011;67878;46.242;5.974;2023-06-14T05:35:48;3.50;;;3.00;;
78581;SDS011;67878;46.242;5.974;2023-06-14T05:38:14;3.65;;;3.17;;
78581;SDS011;67878;46.242;5.974;2023-06-14T05:40:39;3.58;;;3.00;;
78581;SDS011;67878;46.242;5.974;2023-06-14T05:43:04;3.40;;;3.10;;
78581;SDS011;67878;46.242;5.974;2023-06-14T05:45:30;3.13;;;2.83;;
78581;SDS011;67878;46.242;5.974;2023-06-14T05:47:55;2.90;;;2.70;;
78581;SDS011;67878;46.242;5.974;2023-06-14T05:50:20;3.55;;;3.25;;
78581;SDS011;67878;46.242;5.974;2023-06-14T05:52:46;4.45;;;2.90;;
78581;SDS011;67878;46.242;5.974;2023-06-14T05:55:11;4.53;;;3.45;;
78581;SDS011;67878;46.242;5.974;2023-06-14T05:57:37;3.75;;;3.20;;
78581;SDS011;67878;46.242;5.974;2023-06-14T06:00:03;6.65;;;3.75;;
78581;SDS011;67878;46.242;5.974;2023-06-14T06:02:41;5.65;;;3.40;;
78581;SDS011;67878;46.242;5.974;2023-06-14T06:05:11;5.45;;;3.42;;
78581;SDS011;67878;46.242;5.974;2023-06-14T06:07:37;5.65;;;3.33;;
78581;SDS011;67878;46.242;5.974;2023-06-14T06:10:03;4.18;;;2.95;;
78581;SDS011;67878;46.242;5.974;2023-06-14T06:12:29;4.85;;;3.33;;
78581;SDS011;67878;46.242;5.974;2023-06-14T06:14:54;7.50;;;3.38;;
78581;SDS011;67878;46.242;5.974;2023-06-14T06:17:20;3.45;;;3.15;;
78581;SDS011;67878;46.242;5.974;2023-06-14T06:19:45;4.38;;;3.40;;
78581;SDS011;67878;46.242;5.974;2023-06-14T06:22:11;5.25;;;3.92;;
78581;SDS011;67878;46.242;5.974;2023-06-14T06:24:36;4.38;;;3.55;;
78581;SDS011;67878;46.242;5.974;2023-06-14T06:27:02;5.05;;;4.20;;
78581;SDS011;67878;46.242;5.974;2023-06-14T06:29:27;4.70;;;3.85;;
78581;SDS011;67878;46.242;5.974;2023-06-14T06:31:53;5.75;;;3.50;;
78581;SDS011;67878;46.242;5.974;2023-06-14T06:34:18;6.22;;;3.40;;
78581;SDS011;67878;46.242;5.974;2023-06-14T06:36:44;5.32;;;3.97;;
78581;SDS011;67878;46.242;5.974;2023-06-14T06:39:09;4.40;;;3.80;;
78581;SDS011;67878;46.242;5.974;2023-06-14T06:41:36;4.72;;;3.75;;
78581;SDS011;67878;46.242;5.974;2023-06-14T06:44:04;4.93;;;3.50;;
78581;SDS011;67878;46.242;5.974;2023-06-14T06:46:30;4.80;;;3.50;;
78581;SDS011;67878;46.242;5.974;2023-06-14T06:48:55;5.18;;;3.60;;
78581;SDS011;67878;46.242;5.974;2023-06-14T06:51:21;3.90;;;3.38;;
78581;SDS011;67878;46.242;5.974;2023-06-14T06:53:52;4.07;;;3.13;;
78581;SDS011;67878;46.242;5.974;2023-06-14T06:56:18;4.30;;;3.67;;
78581;SDS011;67878;46.242;5.974;2023-06-14T06:58:44;4.50;;;3.35;;
78581;SDS011;67878;46.242;5.974;2023-06-14T07:01:09;5.40;;;3.55;;
78581;SDS011;67878;46.242;5.974;2023-06-14T07:03:35;3.60;;;3.30;;
78581;SDS011;67878;46.242;5.974;2023-06-14T07:06:00;3.75;;;3.30;;
78581;SDS011;67878;46.242;5.974;2023-06-14T07:08:26;5.85;;;3.47;;
78581;SDS011;67878;46.242;5.974;2023-06-14T07:10:52;4.55;;;3.58;;
78581;SDS011;67878;46.242;5.974;2023-06-14T07:13:17;4.53;;;4.10;;
78581;SDS011;67878;46.242;5.974;2023-06-14T07:15:43;4.25;;;3.40;;
78581;SDS011;67878;46.242;5.974;2023-06-14T07:18:08;4.57;;;2.88;;
78581;SDS011;67878;46.242;5.974;2023-06-14T07:20:34;4.20;;;3.17;;
78581;SDS011;67878;46.242;5.974;2023-06-14T07:23:00;5.50;;;3.53;;
78581;SDS011;67878;46.242;5.974;2023-06-14T07:25:26;4.57;;;3.50;;
78581;SDS011;67878;46.242;5.974;2023-06-14T07:27:51;3.80;;;3.13;;
78581;SDS011;67878;46.242;5.974;2023-06-14T07:30:17;4.03;;;3.42;;
78581;SDS011;67878;46.242;5.974;2023-06-14T07:32:43;4.03;;;3.08;;
78581;SDS011;67878;46.242;5.974;2023-06-14T07:35:11;5.13;;;3.15;;
78581;SDS011;67878;46.242;5.974;2023-06-14T07:37:40;4.25;;;2.88;;
78581;SDS011;67878;46.242;5.974;2023-06-14T07:40:06;3.97;;;3.38;;
78581;SDS011;67878;46.242;5.974;2023-06-14T07:42:36;3.50;;;3.20;;
78581;SDS011;67878;46.242;5.974;2023-06-14T07:45:03;3.55;;;3.17;;
78581;SDS011;67878;46.242;5.974;2023-06-14T07:47:29;4.05;;;3.03;;
78581;SDS011;67878;46.242;5.974;2023-06-14T07:49:55;4.55;;;3.65;;
78581;SDS011;67878;46.242;5.974;2023-06-14T07:52:21;3.40;;;3.10;;
78581;SDS011;67878;46.242;5.974;2023-06-14T07:54:47;4.25;;;3.10;;
78581;SDS011;67878;46.242;5.974;2023-06-14T07:57:12;4.20;;;3.47;;
78581;SDS011;67878;46.242;5.974;2023-06-14T07:59:38;4.10;;;3.00;;
78581;SDS011;67878;46.242;5.974;2023-06-14T08:02:04;4.03;;;3.08;;
78581;SDS011;67878;46.242;5.974;2023-06-14T08:04:30;5.18;;;3.47;;
78581;SDS011;67878;46.242;5.974;2023-06-14T08:06:56;5.30;;;2.97;;
78581;SDS011;67878;46.242;5.974;2023-06-14T08:09:22;4.50;;;3.13;;
78581;SDS011;67878;46.242;5.974;2023-06-14T08:11:48;5.68;;;3.30;;
78581;SDS011;67878;46.242;5.974;2023-06-14T08:14:13;5.07;;;3.13;;
78581;SDS011;67878;46.242;5.974;2023-06-14T08:16:39;4.47;;;3.10;;
78581;SDS011;67878;46.242;5.974;2023-06-14T08:19:05;3.45;;;3.15;;
78581;SDS011;67878;46.242;5.974;2023-06-14T08:21:30;5.93;;;3.67;;
78581;SDS011;67878;46.242;5.974;2023-06-14T08:23:58;3.78;;;3.15;;
78581;SDS011;67878;46.242;5.974;2023-06-14T08:26:24;4.25;;;3.08;;
78581;SDS011;67878;46.242;5.974;2023-06-14T08:28:54;3.25;;;2.95;;
78581;SDS011;67878;46.242;5.974;2023-06-14T08:31:20;4.90;;;2.90;;
78581;SDS011;67878;46.242;5.974;2023-06-14T08:33:45;4.05;;;3.65;;
78581;SDS011;67878;46.242;5.974;2023-06-14T08:36:11;4.28;;;2.92;;
78581;SDS011;67878;46.242;5.974;2023-06-14T08:38:37;3.22;;;2.92;;
78581;SDS011;67878;46.242;5.974;2023-06-14T08:41:04;3.10;;;2.80;;
78581;SDS011;67878;46.242;5.974;2023-06-14T08:43:31;4.00;;;3.30;;
78581;SDS011;67878;46.242;5.974;2023-06-14T08:46:03;4.00;;;3.33;;
78581;SDS011;67878;46.242;5.974;2023-06-14T08:48:29;3.42;;;2.70;;
78581;SDS011;67878;46.242;5.974;2023-06-14T08:53:27;3.28;;;2.80;;
78581;SDS011;67878;46.242;5.974;2023-06-14T08:55:54;2.88;;;2.58;;
78581;SDS011;67878;46.242;5.974;2023-06-14T08:58:20;4.05;;;3.20;;
78581;SDS011;67878;46.242;5.974;2023-06-14T09:00:49;4.03;;;3.08;;
78581;SDS011;67878;46.242;5.974;2023-06-14T09:03:17;3.97;;;3.15;;
78581;SDS011;67878;46.242;5.974;2023-06-14T09:05:45;3.25;;;2.80;;
78581;SDS011;67878;46.242;5.974;2023-06-14T09:08:12;5.00;;;3.50;;
78581;SDS011;67878;46.242;5.974;2023-06-14T09:10:37;4.20;;;3.15;;
78581;SDS011;67878;46.242;5.974;2023-06-14T09:13:04;3.33;;;2.72;;
78581;SDS011;67878;46.242;5.974;2023-06-14T09:15:30;3.20;;;2.90;;
78581;SDS011;67878;46.242;5.974;2023-06-14T09:17:56;3.85;;;2.90;;
78581;SDS011;67878;46.242;5.974;2023-06-14T09:20:23;3.53;;;3.22;;
78581;SDS011;67878;46.242;5.974;2023-06-14T09:22:49;2.80;;;2.50;;
78581;SDS011;67878;46.242;5.974;2023-06-14T09:25:14;4.03;;;3.47;;
78581;SDS011;67878;46.242;5.974;2023-06-14T09:27:40;3.40;;;3.10;;
78581;SDS011;67878;46.242;5.974;2023-06-14T09:30:08;4.40;;;3.53;;
78581;SDS011;67878;46.242;5.974;2023-06-14T09:32:38;4.72;;;3.63;;
78581;SDS011;67878;46.242;5.974;2023-06-14T09:35:07;4.15;;;3.72;;
78581;SDS011;67878;46.242;5.974;2023-06-14T09:37:33;3.78;;;3.38;;
78581;SDS011;67878;46.242;5.974;2023-06-14T09:40:00;5.00;;;3.50;;
78581;SDS011;67878;46.242;5.974;2023-06-14T09:42:26;3.35;;;3.05;;
78581;SDS011;67878;46.242;5.974;2023-06-14T09:44:53;7.20;;;3.85;;
78581;SDS011;67878;46.242;5.974;2023-06-14T09:47:19;4.90;;;3.40;;
78581;SDS011;67878;46.242;5.974;2023-06-14T09:49:45;3.83;;;3.10;;
78581;SDS011;67878;46.242;5.974;2023-06-14T09:52:13;4.97;;;4.07;;
78581;SDS011;67878;46.242;5.974;2023-06-14T09:54:40;6.05;;;3.70;;
78581;SDS011;67878;46.242;5.974;2023-06-14T09:57:08;6.03;;;3.30;;
78581;SDS011;67878;46.242;5.974;2023-06-14T09:59:36;4.38;;;3.63;;
78581;SDS011;67878;46.242;5.974;2023-06-14T10:02:11;4.07;;;3.65;;
78581;SDS011;67878;46.242;5.974;2023-06-14T10:04:50;4.82;;;3.33;;
78581;SDS011;67878;46.242;5.974;2023-06-14T10:07:22;4.38;;;3.30;;
78581;SDS011;67878;46.242;5.974;2023-06-14T10:09:48;6.22;;;3.97;;
78581;SDS011;67878;46.242;5.974;2023-06-14T10:12:17;4.18;;;3.70;;
78581;SDS011;67878;46.242;5.974;2023-06-14T10:14:50;4.38;;;3.38;;
78581;SDS011;67878;46.242;5.974;2023-06-14T10:19:50;4.68;;;3.60;;
78581;SDS011;67878;46.242;5.974;2023-06-14T10:25:25;4.18;;;3.45;;
78581;SDS011;67878;46.242;5.974;2023-06-14T10:27:52;4.25;;;3.85;;
78581;SDS011;67878;46.242;5.974;2023-06-14T10:30:18;4.05;;;3.63;;
78581;SDS011;67878;46.242;5.974;2023-06-14T10:33:03;3.33;;;3.03;;
78581;SDS011;67878;46.242;5.974;2023-06-14T10:35:30;4.20;;;3.60;;
78581;SDS011;67878;46.242;5.974;2023-06-14T10:37:56;4.15;;;3.08;;
78581;SDS011;67878;46.242;5.974;2023-06-14T10:40:31;7.05;;;3.47;;
78581;SDS011;67878;46.242;5.974;2023-06-14T10:42:57;5.30;;;3.70;;
78581;SDS011;67878;46.242;5.974;2023-06-14T10:45:23;4.25;;;3.72;;
78581;SDS011;67878;46.242;5.974;2023-06-14T10:47:48;5.45;;;3.90;;
78581;SDS011;67878;46.242;5.974;2023-06-14T10:50:17;9.02;;;3.55;;
78581;SDS011;67878;46.242;5.974;2023-06-14T10:52:44;6.00;;;3.42;;
78581;SDS011;67878;46.242;5.974;2023-06-14T10:55:14;4.22;;;3.58;;
78581;SDS011;67878;46.242;5.974;2023-06-14T11:00:13;6.38;;;3.50;;
78581;SDS011;67878;46.242;5.974;2023-06-14T11:05:10;5.35;;;3.47;;
78581;SDS011;67878;46.242;5.974;2023-06-14T11:10:41;6.55;;;3.63;;
78581;SDS011;67878;46.242;5.974;2023-06-14T11:13:02;6.95;;;3.85;;
78581;SDS011;67878;46.242;5.974;2023-06-14T11:15:30;4.47;;;3.60;;
78581;SDS011;67878;46.242;5.974;2023-06-14T11:18:01;5.47;;;3.42;;
78581;SDS011;67878;46.242;5.974;2023-06-14T11:20:30;5.35;;;3.50;;
78581;SDS011;67878;46.242;5.974;2023-06-14T11:22:58;5.20;;;3.65;;
78581;SDS011;67878;46.242;5.974;2023-06-14T11:25:24;4.95;;;3.28;;
78581;SDS011;67878;46.242;5.974;2023-06-14T11:27:50;7.25;;;3.80;;
78581;SDS011;67878;46.242;5.974;2023-06-14T11:30:16;5.65;;;3.47;;
78581;SDS011;67878;46.242;5.974;2023-06-14T11:32:42;6.40;;;3.80;;
78581;SDS011;67878;46.242;5.974;2023-06-14T11:35:08;6.13;;;3.80;;
78581;SDS011;67878;46.242;5.974;2023-06-14T11:37:35;7.78;;;3.75;;
78581;SDS011;67878;46.242;5.974;2023-06-14T11:40:02;4.15;;;3.53;;
78581;SDS011;67878;46.242;5.974;2023-06-14T11:42:33;6.65;;;4.13;;
78581;SDS011;67878;46.242;5.974;2023-06-14T11:44:58;5.18;;;3.58;;
78581;SDS011;67878;46.242;5.974;2023-06-14T11:47:23;5.00;;;3.53;;
78581;SDS011;67878;46.242;5.974;2023-06-14T11:49:49;5.07;;;3.60;;
78581;SDS011;67878;46.242;5.974;2023-06-14T11:52:14;6.35;;;3.95;;
78581;SDS011;67878;46.242;5.974;2023-06-14T11:54:40;5.13;;;3.80;;
78581;SDS011;67878;46.242;5.974;2023-06-14T11:57:08;4.22;;;3.38;;
78581;SDS011;67878;46.242;5.974;2023-06-14T11:59:40;4.70;;;3.40;;
78581;SDS011;67878;46.242;5.974;2023-06-14T12:02:06;4.95;;;3.75;;
78581;SDS011;67878;46.242;5.974;2023-06-14T12:04:32;4.78;;;3.90;;
78581;SDS011;67878;46.242;5.974;2023-06-14T12:06:57;4.18;;;3.78;;
78581;SDS011;67878;46.242;5.974;2023-06-14T12:12:23;6.05;;;3.33;;
78581;SDS011;67878;46.242;5.974;2023-06-14T12:14:53;5.35;;;3.47;;
78581;SDS011;67878;46.242;5.974;2023-06-14T12:17:20;4.07;;;3.00;;
78581;SDS011;67878;46.242;5.974;2023-06-14T12:19:46;5.63;;;4.00;;
78581;SDS011;67878;46.242;5.974;2023-06-14T12:22:12;5.35;;;3.58;;
78581;SDS011;67878;46.242;5.974;2023-06-14T12:24:37;4.97;;;3.30;;
78581;SDS011;67878;46.242;5.974;2023-06-14T12:27:03;3.88;;;3.47;;
78581;SDS011;67878;46.242;5.974;2023-06-14T12:29:29;3.65;;;3.08;;
78581;SDS011;67878;46.242;5.974;2023-06-14T12:31:55;4.45;;;3.72;;
78581;SDS011;67878;46.242;5.974;2023-06-14T12:34:25;3.83;;;3.42;;
78581;SDS011;67878;46.242;5.974;2023-06-14T12:36:52;5.35;;;3.80;;
78581;SDS011;67878;46.242;5.974;2023-06-14T12:39:20;5.45;;;3.65;;
78581;SDS011;67878;46.242;5.974;2023-06-14T12:41:46;5.28;;;3.60;;
78581;SDS011;67878;46.242;5.974;2023-06-14T12:44:12;5.05;;;4.03;;
78581;SDS011;67878;46.242;5.974;2023-06-14T12:46:38;3.40;;;3.03;;
78581;SDS011;67878;46.242;5.974;2023-06-14T12:49:04;4.22;;;3.67;;
78581;SDS011;67878;46.242;5.974;2023-06-14T12:51:31;3.58;;;3.28;;
78581;SDS011;67878;46.242;5.974;2023-06-14T12:53:57;5.97;;;3.97;;
78581;SDS011;67878;46.242;5.974;2023-06-14T12:56:22;4.75;;;3.33;;
78581;SDS011;67878;46.242;5.974;2023-06-14T12:58:47;4.03;;;3.65;;
78581;SDS011;67878;46.242;5.974;2023-06-14T13:01:13;5.05;;;3.60;;
78581;SDS011;67878;46.242;5.974;2023-06-14T13:03:38;3.85;;;3.45;;
78581;SDS011;67878;46.242;5.974;2023-06-14T13:06:04;4.85;;;3.95;;
78581;SDS011;67878;46.242;5.974;2023-06-14T13:08:30;5.63;;;4.10;;
78581;SDS011;67878;46.242;5.974;2023-06-14T13:10:56;3.90;;;3.38;;
78581;SDS011;67878;46.242;5.974;2023-06-14T13:13:21;4.40;;;3.70;;
78581;SDS011;67878;46.242;5.974;2023-06-14T13:15:46;5.40;;;3.40;;
78581;SDS011;67878;46.242;5.974;2023-06-14T13:18:14;4.93;;;3.90;;
78581;SDS011;67878;46.242;5.974;2023-06-14T13:20:39;4.28;;;3.88;;
78581;SDS011;67878;46.242;5.974;2023-06-14T13:23:05;3.75;;;3.33;;
78581;SDS011;67878;46.242;5.974;2023-06-14T13:25:32;3.92;;;3.53;;
78581;SDS011;67878;46.242;5.974;2023-06-14T13:28:02;6.22;;;3.95;;
78581;SDS011;67878;46.242;5.974;2023-06-14T13:30:28;4.68;;;3.65;;
78581;SDS011;67878;46.242;5.974;2023-06-14T13:32:53;4.10;;;3.60;;
78581;SDS011;67878;46.242;5.974;2023-06-14T13:35:20;3.80;;;3.30;;
78581;SDS011;67878;46.242;5.974;2023-06-14T13:37:46;4.18;;;3.53;;
78581;SDS011;67878;46.242;5.974;2023-06-14T13:40:12;3.97;;;3.58;;
78581;SDS011;67878;46.242;5.974;2023-06-14T13:42:37;4.18;;;3.70;;
78581;SDS011;67878;46.242;5.974;2023-06-14T13:45:03;4.30;;;3.90;;
78581;SDS011;67878;46.242;5.974;2023-06-14T13:47:29;4.97;;;3.72;;
78581;SDS011;67878;46.242;5.974;2023-06-14T13:49:56;4.15;;;3.42;;
78581;SDS011;67878;46.242;5.974;2023-06-14T13:52:21;4.10;;;3.33;;
78581;SDS011;67878;46.242;5.974;2023-06-14T13:54:47;4.22;;;3.10;;
78581;SDS011;67878;46.242;5.974;2023-06-14T13:57:12;3.50;;;3.20;;
78581;SDS011;67878;46.242;5.974;2023-06-14T13:59:38;5.03;;;3.70;;
78581;SDS011;67878;46.242;5.974;2023-06-14T14:02:05;4.68;;;3.72;;
78581;SDS011;67878;46.242;5.974;2023-06-14T14:04:31;4.38;;;3.67;;
78581;SDS011;67878;46.242;5.974;2023-06-14T14:06:56;4.50;;;3.47;;
78581;SDS011;67878;46.242;5.974;2023-06-14T14:09:22;4.25;;;3.35;;
78581;SDS011;67878;46.242;5.974;2023-06-14T14:11:47;7.03;;;3.75;;
78581;SDS011;67878;46.242;5.974;2023-06-14T14:14:13;4.00;;;3.60;;
78581;SDS011;67878;46.242;5.974;2023-06-14T14:16:40;4.53;;;3.65;;
78581;SDS011;67878;46.242;5.974;2023-06-14T14:19:06;3.55;;;3.00;;
78581;SDS011;67878;46.242;5.974;2023-06-14T14:21:32;5.20;;;3.53;;
78581;SDS011;67878;46.242;5.974;2023-06-14T14:23:58;5.93;;;3.60;;
78581;SDS011;67878;46.242;5.974;2023-06-14T14:26:23;4.03;;;2.95;;
78581;SDS011;67878;46.242;5.974;2023-06-14T14:28:49;4.00;;;3.45;;
78581;SDS011;67878;46.242;5.974;2023-06-14T14:31:16;4.15;;;3.75;;
78581;SDS011;67878;46.242;5.974;2023-06-14T14:33:43;3.78;;;3.40;;
78581;SDS011;67878;46.242;5.974;2023-06-14T14:36:09;4.03;;;3.70;;
78581;SDS011;67878;46.242;5.974;2023-06-14T14:38:34;3.97;;;3.55;;
78581;SDS011;67878;46.242;5.974;2023-06-14T14:41:00;5.07;;;3.30;;
78581;SDS011;67878;46.242;5.974;2023-06-14T14:43:25;3.65;;;3.20;;
78581;SDS011;67878;46.242;5.974;2023-06-14T14:45:51;3.60;;;3.30;;
78581;SDS011;67878;46.242;5.974;2023-06-14T14:48:17;4.15;;;3.40;;
78581;SDS011;67878;46.242;5.974;2023-06-14T14:50:42;4.28;;;3.72;;
78581;SDS011;67878;46.242;5.974;2023-06-14T14:53:08;3.60;;;3.30;;
78581;SDS011;67878;46.242;5.974;2023-06-14T14:55:33;3.75;;;3.42;;
78581;SDS011;67878;46.242;5.974;2023-06-14T14:58:01;3.92;;;3.58;;
78581;SDS011;67878;46.242;5.974;2023-06-14T15:00:27;4.25;;;3.45;;
78581;SDS011;67878;46.242;5.974;2023-06-14T15:02:52;5.93;;;3.08;;
78581;SDS011;67878;46.242;5.974;2023-06-14T15:05:18;4.70;;;3.38;;
78581;SDS011;67878;46.242;5.974;2023-06-14T15:07:43;3.40;;;3.10;;
78581;SDS011;67878;46.242;5.974;2023-06-14T15:10:10;4.38;;;3.30;;
78581;SDS011;67878;46.242;5.974;2023-06-14T15:12:36;4.20;;;3.20;;